createdAt,value
2019-03-18T00:01:45.000Z,1001.497
2019-03-18T00:11:45.000Z,1001.633
2019-03-18T00:21:47.000Z,1001.818
2019-03-18T00:31:45.000Z,1001.81
2019-03-18T00:41:45.000Z,1001.656
2019-03-18T00:51:45.000Z,1001.795
2019-03-18T01:01:45.000Z,1001.804
2019-03-18T01:11:45.000Z,1001.953
2019-03-18T01:21:45.000Z,1001.886
2019-03-18T01:31:45.000Z,1001.943
2019-03-18T01:41:45.000Z,1001.944
2019-03-18T01:51:45.000Z,1001.831
2019-03-18T02:01:45.000Z,1001.919
2019-03-18T02:11:45.000Z,1002.06
2019-03-18T02:21:46.000Z,1002.222
2019-03-18T02:31:45.000Z,1002.261
2019-03-18T02:41:45.000Z,1002.358
2019-03-18T02:51:45.000Z,1002.392
2019-03-18T03:01:45.000Z,1002.451
2019-03-18T03:11:45.000Z,1002.566
2019-03-18T03:21:45.000Z,1002.75
2019-03-18T03:31:45.000Z,1002.77
2019-03-18T03:41:45.000Z,1002.906
2019-03-18T03:51:45.000Z,1002.922
2019-03-18T04:01:45.000Z,1003.067
2019-03-18T04:11:45.000Z,1003.093
2019-03-18T04:21:45.000Z,1003.121
2019-03-18T04:31:45.000Z,1003.337
2019-03-18T04:41:46.000Z,1003.608
2019-03-18T04:51:45.000Z,1003.623
2019-03-18T05:01:45.000Z,1003.786
2019-03-18T05:11:45.000Z,1003.807
2019-03-18T05:21:46.000Z,1003.926
2019-03-18T05:31:45.000Z,1003.95
2019-03-18T05:41:45.000Z,1004.156
2019-03-18T05:51:45.000Z,1004.386
2019-03-18T06:01:45.000Z,1004.482
2019-03-18T06:11:45.000Z,1004.695
2019-03-18T06:21:46.000Z,1004.872
2019-03-18T06:31:46.000Z,1005.026
2019-03-18T06:41:46.000Z,1005.101
2019-03-18T06:51:46.000Z,1005.291
2019-03-18T07:01:46.000Z,1005.461
2019-03-18T07:11:46.000Z,1005.634
2019-03-18T07:21:46.000Z,1005.812
2019-03-18T07:31:46.000Z,1005.947
2019-03-18T07:41:46.000Z,1006.065
2019-03-18T07:51:46.000Z,1006.252
2019-03-18T08:01:46.000Z,1006.331
2019-03-18T08:11:46.000Z,1006.523
2019-03-18T08:21:46.000Z,1006.632
2019-03-18T08:31:46.000Z,1006.811
2019-03-18T08:41:46.000Z,1006.769
2019-03-18T08:51:46.000Z,1006.844
2019-03-18T09:01:46.000Z,1007.07
2019-03-18T09:11:46.000Z,1007.216
2019-03-18T09:21:46.000Z,1007.253
2019-03-18T09:31:46.000Z,1007.384
2019-03-18T09:41:47.000Z,1007.504
2019-03-18T09:51:47.000Z,1007.621
2019-03-18T10:01:46.000Z,1007.772
2019-03-18T10:11:46.000Z,1007.705
2019-03-18T10:21:46.000Z,1007.864
2019-03-18T10:31:46.000Z,1007.977
2019-03-18T10:41:46.000Z,1008
2019-03-18T10:51:46.000Z,1008.078
2019-03-18T11:01:46.000Z,1008.128
2019-03-18T11:11:46.000Z,1008.262
2019-03-18T11:21:46.000Z,1008.41
2019-03-18T11:31:46.000Z,1008.949
2019-03-18T11:41:46.000Z,1009.255
2019-03-18T11:51:46.000Z,1009.193
2019-03-18T12:01:46.000Z,1009.187
2019-03-18T12:11:46.000Z,1009.074
2019-03-18T12:21:46.000Z,1009.053
2019-03-18T12:31:46.000Z,1008.989
2019-03-18T12:41:46.000Z,1009.097
2019-03-18T12:51:46.000Z,1009.016
2019-03-18T13:01:46.000Z,1009.008
2019-03-18T13:11:46.000Z,1009.087
2019-03-18T13:21:47.000Z,1009.266
2019-03-18T13:31:46.000Z,1009.259
2019-03-18T13:41:46.000Z,1009.213
2019-03-18T13:51:46.000Z,1009.226
2019-03-18T14:01:46.000Z,1009.22
2019-03-18T14:11:46.000Z,1009.409
2019-03-18T14:21:47.000Z,1009.579
2019-03-18T14:31:46.000Z,1009.817
2019-03-18T14:41:47.000Z,1009.792
2019-03-18T14:51:47.000Z,1009.848
2019-03-18T15:01:47.000Z,1009.943
2019-03-18T15:11:47.000Z,1010.103
2019-03-18T15:21:47.000Z,1010.197
2019-03-18T15:31:47.000Z,1010.261
2019-03-18T15:41:47.000Z,1010.34
2019-03-18T15:51:47.000Z,1010.659
2019-03-18T16:01:47.000Z,1011.022
2019-03-18T16:11:47.000Z,1011.098
2019-03-18T16:21:47.000Z,1011.312
2019-03-18T16:31:47.000Z,1011.411
2019-03-18T16:41:47.000Z,1011.402
2019-03-18T16:51:47.000Z,1011.457
2019-03-18T17:01:47.000Z,1011.652
2019-03-18T17:11:47.000Z,1011.795
2019-03-18T17:21:47.000Z,1012.115
2019-03-18T17:31:47.000Z,1012.209
2019-03-18T17:41:47.000Z,1012.252
2019-03-18T17:51:47.000Z,1012.31
2019-03-18T18:01:47.000Z,1012.401
2019-03-18T18:11:47.000Z,1012.552
2019-03-18T18:21:48.000Z,1012.733
2019-03-18T18:31:47.000Z,1012.873
2019-03-18T18:41:47.000Z,1012.923
2019-03-18T18:51:47.000Z,1013.137
2019-03-18T19:01:47.000Z,1013.239
2019-03-18T19:11:47.000Z,1013.311
2019-03-18T19:21:47.000Z,1013.333
2019-03-18T19:31:47.000Z,1013.431
2019-03-18T19:41:48.000Z,1013.596
2019-03-18T19:51:49.000Z,1013.837
2019-03-18T20:01:47.000Z,1013.958
2019-03-18T20:11:47.000Z,1014.164
2019-03-18T20:21:47.000Z,1014.279
2019-03-18T20:31:47.000Z,1014.416
2019-03-18T20:41:47.000Z,1014.501
2019-03-18T20:51:47.000Z,1014.571
2019-03-18T21:01:47.000Z,1014.775
2019-03-18T21:11:47.000Z,1014.903
2019-03-18T21:21:47.000Z,1014.995
2019-03-18T21:31:47.000Z,1015.056
2019-03-18T21:41:47.000Z,1015.185
2019-03-18T21:51:47.000Z,1015.174
2019-03-18T22:01:47.000Z,1015.268
2019-03-18T22:11:47.000Z,1015.308
2019-03-18T22:21:47.000Z,1015.403
2019-03-18T22:31:47.000Z,1015.445
2019-03-18T22:41:47.000Z,1015.554
2019-03-18T22:51:48.000Z,1015.533
2019-03-18T23:01:48.000Z,1015.636
2019-03-18T23:11:48.000Z,1015.67
2019-03-18T23:21:48.000Z,1015.862
2019-03-18T23:31:51.000Z,1015.989
2019-03-18T23:41:48.000Z,1015.939
2019-03-18T23:51:48.000Z,1015.967
